createdAt,value
2022-11-19T00:01:52.051Z,2.65
2022-11-19T00:04:24.128Z,3.42
2022-11-19T00:06:56.153Z,3.40
2022-11-19T00:09:28.312Z,3.60
2022-11-19T00:12:19.181Z,4.10
2022-11-19T00:15:11.022Z,4.25
2022-11-19T00:17:43.027Z,4.22
2022-11-19T00:20:20.259Z,2.95
2022-11-19T00:22:53.793Z,2.97
2022-11-19T00:25:29.584Z,2.85
2022-11-19T00:28:01.697Z,3.10
2022-11-19T00:30:47.418Z,3.00
2022-11-19T00:33:25.584Z,2.72
2022-11-19T00:35:58.662Z,2.60
2022-11-19T00:38:32.212Z,2.72
2022-11-19T00:41:04.333Z,2.20
2022-11-19T00:43:52.533Z,4.50
2022-11-19T00:46:29.339Z,2.20
2022-11-19T00:49:02.022Z,2.60
2022-11-19T00:51:34.259Z,2.60
2022-11-19T00:54:07.360Z,2.65
2022-11-19T00:56:39.410Z,2.30
2022-11-19T00:59:11.320Z,2.47
2022-11-19T01:01:43.377Z,3.50
2022-11-19T01:04:15.425Z,2.22
2022-11-19T01:06:47.486Z,2.67
2022-11-19T01:09:20.433Z,2.67
2022-11-19T01:11:52.827Z,2.88
2022-11-19T01:14:24.827Z,5.65
2022-11-19T01:16:56.736Z,2.15
2022-11-19T01:19:28.613Z,2.05
2022-11-19T01:22:00.617Z,2.00
2022-11-19T01:24:32.551Z,2.40
2022-11-19T01:27:04.614Z,3.10
2022-11-19T01:29:36.582Z,2.35
2022-11-19T01:32:08.538Z,2.00
2022-11-19T01:34:40.459Z,1.92
2022-11-19T01:37:12.326Z,2.25
2022-11-19T01:39:44.306Z,2.90
2022-11-19T01:42:49.318Z,3.05
2022-11-19T01:45:35.354Z,4.80
2022-11-19T01:48:30.021Z,3.25
2022-11-19T01:51:08.791Z,2.50
2022-11-19T01:54:06.270Z,3.50
2022-11-19T01:56:43.871Z,2.50
2022-11-19T01:59:18.482Z,2.20
2022-11-19T02:01:51.647Z,3.30
2022-11-19T02:04:25.690Z,3.65
2022-11-19T02:06:58.539Z,2.38
2022-11-19T02:09:30.523Z,2.58
2022-11-19T02:12:21.741Z,2.90
2022-11-19T02:15:32.023Z,2.30
2022-11-19T02:18:39.246Z,2.10
2022-11-19T02:21:46.116Z,2.30
2022-11-19T02:24:53.015Z,2.10
2022-11-19T02:27:59.957Z,2.40
2022-11-19T02:30:56.657Z,2.15
2022-11-19T02:33:53.227Z,2.15
2022-11-19T02:36:54.882Z,3.63
2022-11-19T02:39:48.661Z,2.10
2022-11-19T02:42:30.749Z,1.90
2022-11-19T02:45:16.001Z,1.85
2022-11-19T02:48:23.260Z,2.40
2022-11-19T02:51:04.484Z,2.55
2022-11-19T02:53:37.362Z,2.17
2022-11-19T02:56:33.459Z,2.13
2022-11-19T02:59:47.545Z,2.30
2022-11-19T03:03:20.347Z,3.45
2022-11-19T03:06:20.167Z,3.10
2022-11-19T03:08:57.160Z,2.35
2022-11-19T03:11:31.708Z,2.40
2022-11-19T03:14:37.525Z,2.50
2022-11-19T03:17:53.489Z,2.55
2022-11-19T03:20:47.035Z,2.88
2022-11-19T03:23:34.173Z,2.17
2022-11-19T03:26:41.484Z,2.45
2022-11-19T03:29:23.547Z,2.35
2022-11-19T03:32:04.129Z,2.33
2022-11-19T03:34:41.814Z,2.80
2022-11-19T03:37:18.563Z,2.45
2022-11-19T03:39:55.956Z,2.38
2022-11-19T03:42:31.446Z,2.50
2022-11-19T03:45:16.495Z,2.60
2022-11-19T03:47:52.716Z,2.22
2022-11-19T03:50:37.548Z,2.83
2022-11-19T03:53:21.080Z,2.33
2022-11-19T03:56:01.512Z,3.45
2022-11-19T03:58:40.818Z,2.63
2022-11-19T04:01:15.597Z,2.42
2022-11-19T04:04:07.565Z,2.00
2022-11-19T04:06:59.247Z,2.28
2022-11-19T04:09:31.237Z,2.60
2022-11-19T04:12:03.362Z,2.50
2022-11-19T04:14:35.911Z,2.60
2022-11-19T04:17:07.889Z,2.40
2022-11-19T04:19:40.081Z,2.92
2022-11-19T04:22:12.064Z,2.85
2022-11-19T04:24:44.025Z,2.63
2022-11-19T04:27:15.936Z,3.75
2022-11-19T04:29:47.900Z,2.83
2022-11-19T04:32:19.902Z,2.40
2022-11-19T04:34:51.895Z,3.45
2022-11-19T04:37:23.879Z,2.47
2022-11-19T04:39:55.824Z,3.30
2022-11-19T04:42:28.047Z,3.65
2022-11-19T04:45:00.184Z,2.20
2022-11-19T04:47:32.135Z,2.03
2022-11-19T04:50:04.157Z,2.95
2022-11-19T04:52:40.846Z,2.67
2022-11-19T04:55:13.720Z,2.00
2022-11-19T04:57:45.813Z,2.20
2022-11-19T05:00:18.026Z,3.45
2022-11-19T05:02:50.272Z,2.60
2022-11-19T05:05:22.239Z,2.20
2022-11-19T05:07:54.126Z,1.90
2022-11-19T05:10:26.052Z,2.58
2022-11-19T05:12:58.006Z,2.50
2022-11-19T05:15:29.912Z,2.22
2022-11-19T05:18:02.064Z,2.10
2022-11-19T05:20:34.168Z,2.55
2022-11-19T05:23:06.314Z,2.70
2022-11-19T05:25:38.275Z,2.58
2022-11-19T05:28:10.324Z,2.65
2022-11-19T05:30:45.335Z,2.65
2022-11-19T05:33:17.354Z,2.45
2022-11-19T05:35:49.655Z,2.30
2022-11-19T05:38:21.743Z,2.70
2022-11-19T05:40:53.611Z,2.33
2022-11-19T05:43:25.614Z,2.25
2022-11-19T05:46:01.386Z,2.47
2022-11-19T05:48:33.805Z,2.58
2022-11-19T05:51:05.808Z,3.92
2022-11-19T05:53:37.759Z,2.70
2022-11-19T05:56:10.062Z,3.83
2022-11-19T05:58:42.057Z,2.65
2022-11-19T06:01:15.072Z,3.67
2022-11-19T06:03:47.237Z,2.45
2022-11-19T06:06:19.508Z,2.33
2022-11-19T06:08:51.624Z,2.40
2022-11-19T06:11:42.275Z,2.40
2022-11-19T06:14:24.106Z,2.97
2022-11-19T06:16:59.335Z,2.63
2022-11-19T06:19:31.597Z,2.80
2022-11-19T06:22:03.844Z,2.63
2022-11-19T06:24:36.023Z,2.45
2022-11-19T06:27:08.118Z,2.75
2022-11-19T06:29:40.158Z,3.65
2022-11-19T06:32:12.101Z,2.80
2022-11-19T06:34:44.245Z,2.30
2022-11-19T06:37:16.243Z,2.80
2022-11-19T06:39:48.174Z,2.33
2022-11-19T06:42:38.207Z,3.13
2022-11-19T06:45:13.049Z,2.38
2022-11-19T06:47:48.947Z,2.50
2022-11-19T06:50:21.183Z,2.63
2022-11-19T06:52:53.311Z,2.25
2022-11-19T06:55:25.620Z,2.38
2022-11-19T06:58:02.659Z,2.03
2022-11-19T07:00:35.661Z,2.10
2022-11-19T07:03:07.682Z,2.13
2022-11-19T07:05:39.721Z,1.95
2022-11-19T07:08:12.187Z,2.40
2022-11-19T07:10:44.261Z,2.35
2022-11-19T07:13:16.309Z,2.30
2022-11-19T07:15:48.349Z,2.58
2022-11-19T07:18:20.282Z,2.40
2022-11-19T07:20:52.199Z,2.20
2022-11-19T07:23:24.166Z,2.20
2022-11-19T07:26:02.746Z,2.10
2022-11-19T07:28:35.158Z,2.40
2022-11-19T07:31:08.200Z,2.30
2022-11-19T07:33:40.675Z,2.30
2022-11-19T07:36:27.218Z,2.20
2022-11-19T07:38:59.312Z,2.60
2022-11-19T07:41:50.155Z,3.00
2022-11-19T07:44:41.905Z,3.08
2022-11-19T07:47:13.821Z,2.35
2022-11-19T07:49:45.850Z,2.60
2022-11-19T07:52:18.182Z,2.65
2022-11-19T07:54:50.112Z,3.10
2022-11-19T07:57:27.223Z,2.95
2022-11-19T08:00:03.498Z,3.70
2022-11-19T08:02:37.186Z,2.65
2022-11-19T08:05:09.473Z,3.10
2022-11-19T08:07:42.021Z,2.88
2022-11-19T08:10:14.505Z,3.13
2022-11-19T08:13:03.034Z,2.92
2022-11-19T08:15:35.136Z,2.70
2022-11-19T08:18:12.983Z,2.60
2022-11-19T08:20:48.336Z,2.70
2022-11-19T08:23:20.525Z,2.90
2022-11-19T08:25:53.686Z,2.50
2022-11-19T08:28:25.894Z,2.67
2022-11-19T08:31:09.269Z,2.70
2022-11-19T08:33:41.346Z,2.60
2022-11-19T08:36:13.375Z,2.70
2022-11-19T08:38:45.689Z,5.15
2022-11-19T08:41:36.183Z,2.90
2022-11-19T08:44:27.957Z,2.75
2022-11-19T08:47:00.068Z,4.00
2022-11-19T08:49:32.121Z,2.50
2022-11-19T08:52:04.088Z,2.35
2022-11-19T08:54:36.108Z,2.35
2022-11-19T08:57:08.535Z,2.50
2022-11-19T08:59:40.633Z,4.28
2022-11-19T09:02:12.728Z,2.65
2022-11-19T09:04:44.757Z,2.80
2022-11-19T09:07:19.389Z,2.72
2022-11-19T09:09:51.408Z,2.72
2022-11-19T09:12:26.100Z,2.55
2022-11-19T09:15:00.891Z,2.60
2022-11-19T09:17:35.644Z,2.38
2022-11-19T09:20:08.592Z,2.00
2022-11-19T09:22:41.207Z,5.18
2022-11-19T09:25:13.564Z,3.03
2022-11-19T09:27:45.863Z,2.00
2022-11-19T09:30:18.159Z,2.10
2022-11-19T09:32:50.435Z,2.17
2022-11-19T09:35:22.576Z,2.50
2022-11-19T09:37:54.636Z,1.80
2022-11-19T09:40:27.400Z,1.80
2022-11-19T09:43:15.380Z,2.08
2022-11-19T09:46:24.788Z,1.83
2022-11-19T09:49:36.491Z,2.00
2022-11-19T09:52:18.963Z,2.58
2022-11-19T09:54:57.076Z,3.00
2022-11-19T09:57:50.028Z,2.88
2022-11-19T10:00:27.880Z,3.00
2022-11-19T10:03:06.169Z,2.97
2022-11-19T10:06:16.052Z,3.00
2022-11-19T10:09:10.619Z,3.03
2022-11-19T10:12:12.696Z,4.82
2022-11-19T10:15:40.156Z,3.22
2022-11-19T10:18:53.798Z,2.50
2022-11-19T10:22:00.478Z,3.22
2022-11-19T10:25:11.285Z,5.00
2022-11-19T10:28:15.982Z,3.58
2022-11-19T10:30:55.389Z,2.72
2022-11-19T10:34:04.798Z,2.97
2022-11-19T10:37:07.425Z,2.80
2022-11-19T10:39:44.218Z,2.35
2022-11-19T10:42:41.220Z,3.17
2022-11-19T10:45:20.576Z,2.15
2022-11-19T10:48:18.840Z,3.78
2022-11-19T10:50:56.038Z,2.35
2022-11-19T10:53:36.318Z,2.60
2022-11-19T10:56:19.736Z,5.50
2022-11-19T10:59:06.634Z,2.42
2022-11-19T11:01:47.316Z,2.22
2022-11-19T11:04:27.804Z,3.00
2022-11-19T11:07:05.936Z,2.80
2022-11-19T11:09:41.498Z,3.25
2022-11-19T11:12:35.720Z,4.35
2022-11-19T11:15:27.960Z,4.15
2022-11-19T11:18:02.547Z,2.30
2022-11-19T11:20:40.118Z,2.70
2022-11-19T11:23:24.280Z,3.97
2022-11-19T11:26:11.480Z,2.53
2022-11-19T11:29:11.004Z,2.78
2022-11-19T11:32:29.258Z,2.35
2022-11-19T11:35:07.012Z,2.95
2022-11-19T11:38:03.097Z,5.03
2022-11-19T11:40:36.159Z,2.08
2022-11-19T11:43:17.814Z,3.03
2022-11-19T11:45:58.600Z,2.00
2022-11-19T11:48:43.802Z,3.63
2022-11-19T11:51:33.344Z,3.20
2022-11-19T11:54:27.555Z,2.80
2022-11-19T11:57:15.048Z,3.00
2022-11-19T11:59:50.745Z,2.75
2022-11-19T12:02:30.870Z,2.78
2022-11-19T12:05:10.879Z,4.78
2022-11-19T12:08:06.589Z,3.65
2022-11-19T12:11:19.178Z,2.28
2022-11-19T12:14:11.983Z,2.42
2022-11-19T12:17:06.134Z,2.00
2022-11-19T12:20:03.833Z,2.33
2022-11-19T12:23:05.884Z,3.25
2022-11-19T12:26:12.644Z,2.70
2022-11-19T12:29:15.228Z,2.95
2022-11-19T12:32:16.854Z,3.05
2022-11-19T12:35:35.828Z,2.92
2022-11-19T12:38:55.032Z,3.25
2022-11-19T12:41:50.139Z,4.03
2022-11-19T12:44:57.632Z,2.70
2022-11-19T12:48:16.425Z,2.60
2022-11-19T12:51:22.662Z,3.08
2022-11-19T12:54:28.867Z,2.50
2022-11-19T12:57:25.165Z,3.17
2022-11-19T13:00:22.320Z,2.45
2022-11-19T13:03:19.090Z,2.40
2022-11-19T13:06:18.272Z,2.67
2022-11-19T13:09:15.439Z,2.65
2022-11-19T13:12:32.936Z,3.05
2022-11-19T13:15:31.675Z,3.17
2022-11-19T13:18:14.363Z,3.30
2022-11-19T13:20:57.212Z,3.53
2022-11-19T13:23:46.491Z,3.22
2022-11-19T13:26:30.070Z,3.40
2022-11-19T13:29:39.575Z,3.05
2022-11-19T13:32:21.241Z,2.80
2022-11-19T13:35:22.258Z,2.80
2022-11-19T13:38:51.016Z,3.75
2022-11-19T13:42:11.752Z,4.25
2022-11-19T13:45:03.918Z,3.60
2022-11-19T13:48:00.082Z,4.40
2022-11-19T13:50:44.740Z,3.75
2022-11-19T13:53:33.100Z,4.30
2022-11-19T13:56:15.323Z,4.25
2022-11-19T13:58:51.019Z,4.50
2022-11-19T14:01:48.244Z,4.50
2022-11-19T14:04:42.996Z,4.50
2022-11-19T14:08:15.291Z,5.35
2022-11-19T14:11:27.581Z,4.57
2022-11-19T14:15:00.527Z,4.53
2022-11-19T14:18:16.778Z,5.45
2022-11-19T14:21:47.314Z,3.58
2022-11-19T14:24:59.388Z,3.90
2022-11-19T14:28:11.053Z,4.93
2022-11-19T14:31:04.462Z,4.45
2022-11-19T14:33:48.568Z,5.38
2022-11-19T14:36:43.279Z,4.90
2022-11-19T14:39:31.490Z,4.40
2022-11-19T14:42:22.435Z,4.60
2022-11-19T14:45:03.735Z,4.20
2022-11-19T14:48:03.700Z,4.30
2022-11-19T14:50:35.919Z,5.70
2022-11-19T14:53:19.675Z,9.50
2022-11-19T14:55:54.165Z,5.18
2022-11-19T14:58:26.603Z,6.20
2022-11-19T15:01:31.242Z,6.30
2022-11-19T15:04:13.653Z,5.15
2022-11-19T15:06:47.246Z,4.78
2022-11-19T15:09:52.064Z,4.63
2022-11-19T15:12:44.414Z,9.35
2022-11-19T15:15:22.457Z,6.35
2022-11-19T15:18:41.011Z,9.27
2022-11-19T15:21:54.348Z,7.55
2022-11-19T15:24:54.498Z,10.30
2022-11-19T15:27:52.336Z,8.30
2022-11-19T15:30:57.644Z,7.60
2022-11-19T15:34:01.062Z,6.60
2022-11-19T15:36:59.082Z,7.65
2022-11-19T15:39:55.961Z,7.95
2022-11-19T15:42:34.647Z,7.68
2022-11-19T15:45:19.075Z,8.38
2022-11-19T15:48:12.025Z,9.90
2022-11-19T15:50:51.364Z,7.45
2022-11-19T15:53:24.569Z,7.53
2022-11-19T15:56:05.368Z,7.40
2022-11-19T15:58:47.810Z,7.68
2022-11-19T16:01:21.846Z,6.63
2022-11-19T16:03:54.232Z,6.30
2022-11-19T16:06:31.688Z,7.07
2022-11-19T16:09:07.334Z,7.15
2022-11-19T16:12:06.453Z,6.38
2022-11-19T16:15:16.707Z,7.25
2022-11-19T16:18:17.051Z,7.10
2022-11-19T16:20:51.643Z,7.70
2022-11-19T16:23:25.594Z,8.27
2022-11-19T16:26:02.071Z,8.90
2022-11-19T16:28:35.381Z,8.20
2022-11-19T16:31:07.458Z,8.30
2022-11-19T16:33:40.247Z,8.48
2022-11-19T16:36:14.179Z,7.70
2022-11-19T16:38:51.182Z,8.43
2022-11-19T16:41:43.512Z,7.57
2022-11-19T16:44:35.511Z,9.23
2022-11-19T16:47:16.110Z,8.93
2022-11-19T16:50:25.297Z,8.63
2022-11-19T16:53:05.216Z,8.05
2022-11-19T16:55:40.296Z,7.53
2022-11-19T16:58:32.211Z,6.80
2022-11-19T17:01:04.682Z,8.10
2022-11-19T17:03:39.706Z,8.18
2022-11-19T17:06:24.313Z,7.53
2022-11-19T17:09:01.060Z,6.65
2022-11-19T17:12:09.095Z,7.07
2022-11-19T17:14:59.048Z,8.77
2022-11-19T17:17:41.424Z,8.40
2022-11-19T17:20:30.687Z,8.40
2022-11-19T17:23:23.477Z,8.25
2022-11-19T17:26:07.442Z,8.93
2022-11-19T17:28:49.952Z,10.02
2022-11-19T17:31:27.529Z,8.23
2022-11-19T17:34:11.881Z,9.25
2022-11-19T17:36:54.799Z,8.75
2022-11-19T17:39:26.855Z,7.70
2022-11-19T17:42:17.539Z,6.70
2022-11-19T17:45:11.194Z,7.15
2022-11-19T17:47:45.650Z,7.35
2022-11-19T17:50:17.897Z,6.95
2022-11-19T17:52:50.072Z,6.47
2022-11-19T17:55:26.391Z,7.50
2022-11-19T17:57:58.449Z,7.35
2022-11-19T18:00:30.398Z,6.65
2022-11-19T18:03:03.359Z,6.88
2022-11-19T18:05:38.108Z,7.90
2022-11-19T18:08:14.275Z,8.10
2022-11-19T18:10:49.589Z,8.38
2022-11-19T18:13:37.040Z,7.88
2022-11-19T18:16:16.047Z,6.80
2022-11-19T18:18:51.228Z,11.80
2022-11-19T18:21:24.825Z,13.07
2022-11-19T18:23:58.584Z,9.80
2022-11-19T18:26:30.773Z,9.95
2022-11-19T18:29:02.885Z,9.27
2022-11-19T18:31:44.746Z,9.80
2022-11-19T18:34:22.298Z,10.55
2022-11-19T18:36:55.063Z,8.00
2022-11-19T18:39:27.163Z,7.97
2022-11-19T18:41:59.695Z,10.18
2022-11-19T18:44:35.012Z,10.57
2022-11-19T18:47:13.717Z,11.73
2022-11-19T18:49:46.576Z,12.43
2022-11-19T18:52:19.220Z,10.77
2022-11-19T18:54:51.499Z,11.95
2022-11-19T18:57:24.041Z,11.05
2022-11-19T18:59:56.705Z,10.60
2022-11-19T19:02:28.971Z,11.40
2022-11-19T19:05:01.740Z,9.55
2022-11-19T19:07:36.030Z,9.25
2022-11-19T19:10:09.325Z,9.57
2022-11-19T19:12:42.636Z,9.98
2022-11-19T19:15:15.456Z,9.60
2022-11-19T19:17:47.678Z,9.38
2022-11-19T19:20:19.917Z,9.48
2022-11-19T19:22:52.773Z,8.80
2022-11-19T19:25:25.372Z,8.40
2022-11-19T19:27:58.300Z,10.07
2022-11-19T19:30:30.300Z,9.23
2022-11-19T19:33:02.356Z,9.63
2022-11-19T19:35:37.514Z,10.90
2022-11-19T19:38:09.671Z,10.20
2022-11-19T19:40:42.391Z,10.30
2022-11-19T19:43:14.933Z,10.07
2022-11-19T19:45:47.122Z,9.48
2022-11-19T19:48:20.035Z,9.10
2022-11-19T19:50:52.188Z,8.45
2022-11-19T19:53:24.945Z,9.02
2022-11-19T19:56:05.455Z,9.68
2022-11-19T19:58:59.558Z,7.35
2022-11-19T20:01:35.401Z,9.07
2022-11-19T20:04:11.060Z,8.85
2022-11-19T20:06:48.314Z,9.55
2022-11-19T20:09:23.565Z,8.70
2022-11-19T20:11:56.687Z,8.57
2022-11-19T20:14:31.188Z,8.68
2022-11-19T20:17:03.719Z,9.20
2022-11-19T20:19:36.377Z,9.05
2022-11-19T20:22:10.354Z,9.70
2022-11-19T20:24:42.700Z,8.93
2022-11-19T20:27:15.626Z,9.80
2022-11-19T20:29:47.982Z,9.10
2022-11-19T20:32:20.801Z,10.27
2022-11-19T20:34:53.526Z,10.77
2022-11-19T20:37:27.776Z,9.07
2022-11-19T20:40:00.869Z,9.63
2022-11-19T20:42:52.361Z,9.00
2022-11-19T20:45:44.309Z,9.35
2022-11-19T20:48:16.914Z,10.00
2022-11-19T20:50:49.414Z,10.57
2022-11-19T20:53:21.954Z,9.82
2022-11-19T20:56:04.994Z,9.23
2022-11-19T20:58:38.132Z,8.88
2022-11-19T21:01:11.492Z,8.07
2022-11-19T21:03:44.163Z,8.93
2022-11-19T21:06:16.575Z,8.32
2022-11-19T21:08:49.238Z,8.00
2022-11-19T21:11:21.699Z,7.93
2022-11-19T21:13:54.168Z,7.93
2022-11-19T21:16:28.892Z,9.07
2022-11-19T21:19:01.527Z,10.00
2022-11-19T21:21:35.789Z,9.23
2022-11-19T21:24:08.905Z,10.00
2022-11-19T21:26:41.728Z,9.60
2022-11-19T21:29:13.878Z,11.82
2022-11-19T21:31:48.294Z,10.65
2022-11-19T21:34:20.727Z,9.70
2022-11-19T21:36:52.875Z,11.02
2022-11-19T21:39:26.397Z,11.23
2022-11-19T21:41:58.728Z,10.90
2022-11-19T21:44:30.898Z,11.27
2022-11-19T21:47:03.876Z,14.00
2022-11-19T21:49:36.314Z,11.10
2022-11-19T21:52:08.738Z,10.75
2022-11-19T21:54:40.970Z,10.90
2022-11-19T21:57:13.079Z,11.13
2022-11-19T21:59:45.222Z,9.63
2022-11-19T22:02:17.375Z,10.32
2022-11-19T22:04:49.420Z,10.95
2022-11-19T22:07:21.530Z,10.90
2022-11-19T22:10:00.283Z,13.57
2022-11-19T22:12:32.315Z,11.27
2022-11-19T22:15:05.395Z,10.18
2022-11-19T22:17:39.140Z,10.38
2022-11-19T22:20:11.933Z,10.60
2022-11-19T22:22:45.274Z,10.35
2022-11-19T22:25:17.585Z,12.02
2022-11-19T22:27:49.643Z,10.30
2022-11-19T22:30:21.629Z,10.65
2022-11-19T22:32:54.287Z,11.50
2022-11-19T22:35:26.364Z,13.70
2022-11-19T22:37:58.406Z,14.25
2022-11-19T22:40:30.607Z,12.15
2022-11-19T22:43:02.644Z,12.85
2022-11-19T22:45:34.695Z,15.43
2022-11-19T22:48:06.856Z,12.77
2022-11-19T22:50:43.077Z,11.80
2022-11-19T22:53:17.147Z,11.43
2022-11-19T22:55:49.484Z,14.75
2022-11-19T22:58:31.372Z,11.27
2022-11-19T23:01:05.497Z,15.35
2022-11-19T23:03:45.808Z,10.90
2022-11-19T23:06:20.511Z,18.90
2022-11-19T23:08:54.890Z,11.40
2022-11-19T23:11:45.622Z,14.13
2022-11-19T23:14:37.413Z,11.95
2022-11-19T23:17:09.535Z,14.75
2022-11-19T23:19:41.791Z,24.42
2022-11-19T23:22:13.954Z,12.57
2022-11-19T23:24:46.003Z,12.75
2022-11-19T23:27:21.951Z,12.82
2022-11-19T23:29:55.121Z,13.23
2022-11-19T23:32:29.019Z,10.88
2022-11-19T23:35:01.021Z,12.35
2022-11-19T23:37:33.142Z,11.48
2022-11-19T23:40:05.678Z,17.08
2022-11-19T23:42:38.693Z,13.45
2022-11-19T23:45:11.114Z,16.98
2022-11-19T23:47:43.295Z,13.65
2022-11-19T23:50:15.388Z,20.65
2022-11-19T23:52:47.429Z,14.52
2022-11-19T23:55:19.453Z,22.38
2022-11-19T23:57:51.493Z,22.27
